createdAt,value
2022-08-30T00:00:17.471Z,14.9
2022-08-30T00:01:33.753Z,14.9
2022-08-30T00:02:50.062Z,14.9
2022-08-30T00:05:21.665Z,14.8
2022-08-30T00:06:37.950Z,14.8
2022-08-30T00:07:54.255Z,14.7
2022-08-30T00:09:10.533Z,14.7
2022-08-30T00:10:26.827Z,14.6
2022-08-30T00:11:43.134Z,14.6
2022-08-30T00:12:59.422Z,14.6
2022-08-30T00:14:15.705Z,14.6
2022-08-30T00:15:32.013Z,14.6
2022-08-30T00:16:48.302Z,14.6
2022-08-30T00:18:04.596Z,14.6
2022-08-30T00:19:20.886Z,14.5
2022-08-30T00:20:36.199Z,14.6
2022-08-30T00:23:08.792Z,14.6
2022-08-30T00:24:25.075Z,14.6
2022-08-30T00:25:41.375Z,14.6
2022-08-30T00:28:13.969Z,14.5
2022-08-30T00:29:29.287Z,14.5
2022-08-30T00:30:44.599Z,14.5
2022-08-30T00:32:00.889Z,14.5
2022-08-30T00:33:17.188Z,14.5
2022-08-30T00:35:49.770Z,14.4
2022-08-30T00:37:06.059Z,14.4
2022-08-30T00:38:22.363Z,14.3
2022-08-30T00:39:38.645Z,14.3
2022-08-30T00:40:54.946Z,14.3
2022-08-30T00:42:11.234Z,14.2
2022-08-30T00:43:27.525Z,14.2
2022-08-30T00:44:43.822Z,14.2
2022-08-30T00:46:00.120Z,14.2
2022-08-30T00:47:15.437Z,14.1
2022-08-30T00:48:31.723Z,14.1
2022-08-30T00:49:48.018Z,14.1
2022-08-30T00:51:04.309Z,14.1
2022-08-30T00:52:20.599Z,14.1
2022-08-30T00:53:36.897Z,14.1
2022-08-30T00:54:53.191Z,14.2
2022-08-30T00:56:09.492Z,14.2
2022-08-30T00:57:24.814Z,14.2
2022-08-30T00:58:40.117Z,14.2
2022-08-30T00:59:56.422Z,14.2
2022-08-30T01:01:12.698Z,14.2
2022-08-30T01:02:28.999Z,14.2
2022-08-30T01:03:45.294Z,14.2
2022-08-30T01:05:01.583Z,14.1
2022-08-30T01:06:17.881Z,14.1
2022-08-30T01:07:34.173Z,14
2022-08-30T01:08:50.462Z,14
2022-08-30T01:10:06.763Z,13.9
2022-08-30T01:11:23.052Z,13.9
2022-08-30T01:12:39.358Z,13.9
2022-08-30T01:13:55.655Z,13.9
2022-08-30T01:15:10.961Z,13.9
2022-08-30T01:16:27.258Z,13.9
2022-08-30T01:17:43.543Z,13.9
2022-08-30T01:18:59.839Z,13.9
2022-08-30T01:21:32.428Z,13.9
2022-08-30T01:22:48.725Z,13.8
2022-08-30T01:24:05.025Z,13.8
2022-08-30T01:25:21.302Z,13.8
2022-08-30T01:26:37.604Z,13.7
2022-08-30T01:27:53.898Z,13.7
2022-08-30T01:29:10.190Z,13.7
2022-08-30T01:30:26.476Z,13.7
2022-08-30T01:31:41.792Z,13.7
2022-08-30T01:32:58.083Z,13.7
2022-08-30T01:34:14.387Z,13.7
2022-08-30T01:35:30.672Z,13.7
2022-08-30T01:36:46.980Z,13.7
2022-08-30T01:38:03.267Z,13.6
2022-08-30T01:39:19.563Z,13.6
2022-08-30T01:40:35.859Z,13.5
2022-08-30T01:41:52.156Z,13.5
2022-08-30T01:43:08.438Z,13.4
2022-08-30T01:44:24.739Z,13.4
2022-08-30T01:45:40.051Z,13.3
2022-08-30T01:46:56.337Z,13.3
2022-08-30T01:48:12.631Z,13.3
2022-08-30T01:49:28.941Z,13.3
2022-08-30T01:52:01.529Z,13.2
2022-08-30T01:53:17.818Z,13.2
2022-08-30T01:54:34.114Z,13.2
2022-08-30T01:55:50.407Z,13.2
2022-08-30T01:57:06.692Z,13.1
2022-08-30T01:58:22.994Z,13
2022-08-30T01:59:39.297Z,13
2022-08-30T02:00:55.577Z,13
2022-08-30T02:02:10.901Z,13
2022-08-30T02:03:27.182Z,13
2022-08-30T02:04:43.491Z,13.1
2022-08-30T02:07:16.065Z,13.1
2022-08-30T02:08:32.357Z,13.1
2022-08-30T02:09:48.652Z,13.1
2022-08-30T02:11:04.950Z,13.1
2022-08-30T02:12:21.252Z,13
2022-08-30T02:14:53.832Z,12.9
2022-08-30T02:16:09.145Z,12.9
2022-08-30T02:17:24.464Z,12.9
2022-08-30T02:18:40.744Z,12.8
2022-08-30T02:19:57.050Z,12.8
2022-08-30T02:22:29.642Z,12.7
2022-08-30T02:23:45.934Z,12.7
2022-08-30T02:25:02.218Z,12.7
2022-08-30T02:26:18.525Z,12.7
2022-08-30T02:27:34.818Z,12.8
2022-08-30T02:28:51.113Z,12.7
2022-08-30T02:30:07.403Z,12.7
2022-08-30T02:31:23.700Z,12.7
2022-08-30T02:32:39.997Z,12.7
2022-08-30T02:33:55.303Z,12.7
2022-08-30T02:35:11.602Z,12.6
2022-08-30T02:36:27.896Z,12.6
2022-08-30T02:37:44.175Z,12.6
2022-08-30T02:39:00.484Z,12.6
2022-08-30T02:40:16.762Z,12.5
2022-08-30T02:41:33.057Z,12.5
2022-08-30T02:42:49.363Z,12.5
2022-08-30T02:44:05.659Z,12.4
2022-08-30T02:45:21.950Z,12.4
2022-08-30T02:46:37.256Z,12.4
2022-08-30T02:47:52.575Z,12.4
2022-08-30T02:49:08.860Z,12.3
2022-08-30T02:50:25.157Z,12.4
2022-08-30T02:51:41.457Z,12.4
2022-08-30T02:52:57.751Z,12.4
2022-08-30T02:54:14.042Z,12.4
2022-08-30T02:55:30.343Z,12.4
2022-08-30T02:56:46.627Z,12.4
2022-08-30T02:58:02.931Z,12.4
2022-08-30T02:59:19.215Z,12.4
2022-08-30T03:00:35.508Z,12.4
2022-08-30T03:01:51.801Z,12.4
2022-08-30T03:03:08.109Z,12.4
2022-08-30T03:04:23.413Z,12.4
2022-08-30T03:05:39.712Z,12.4
2022-08-30T03:06:55.998Z,12.4
2022-08-30T03:08:12.291Z,12.3
2022-08-30T03:09:28.598Z,12.3
2022-08-30T03:10:44.882Z,12.3
2022-08-30T03:12:01.188Z,12.3
2022-08-30T03:13:17.470Z,12.3
2022-08-30T03:14:33.758Z,12.3
2022-08-30T03:15:50.050Z,12.3
2022-08-30T03:17:06.346Z,12.3
2022-08-30T03:18:22.646Z,12.3
2022-08-30T03:19:38.932Z,12.3
2022-08-30T03:20:55.240Z,12.3
2022-08-30T03:22:11.522Z,12.3
2022-08-30T03:23:27.831Z,12.3
2022-08-30T03:24:43.134Z,12.3
2022-08-30T03:25:59.438Z,12.3
2022-08-30T03:27:15.713Z,12.2
2022-08-30T03:28:32.027Z,12.3
2022-08-30T03:29:48.304Z,12.2
2022-08-30T03:31:04.615Z,12.2
2022-08-30T03:32:20.901Z,12.2
2022-08-30T03:33:37.192Z,12.2
2022-08-30T03:34:53.488Z,12.2
2022-08-30T03:36:09.000Z,12.2
2022-08-30T03:37:26.025Z,12.1
2022-08-30T03:38:42.324Z,12.1
2022-08-30T03:39:58.603Z,12.1
2022-08-30T03:41:13.882Z,12.1
2022-08-30T03:42:30.113Z,12.1
2022-08-30T03:43:46.418Z,12.2
2022-08-30T03:46:18.957Z,12.2
2022-08-30T03:47:35.207Z,12.2
2022-08-30T03:48:51.492Z,12.2
2022-08-30T03:50:07.737Z,12.1
2022-08-30T03:51:23.993Z,12.1
2022-08-30T03:53:56.463Z,12.1
2022-08-30T03:55:12.708Z,12.2
2022-08-30T03:56:28.950Z,12.2
2022-08-30T03:57:44.209Z,12.2
2022-08-30T03:59:00.434Z,12.2
2022-08-30T04:00:16.676Z,12.2
2022-08-30T04:01:32.923Z,12.2
2022-08-30T04:02:49.166Z,12.1
2022-08-30T04:04:05.411Z,12.1
2022-08-30T04:05:21.634Z,12.1
2022-08-30T04:06:37.881Z,12
2022-08-30T04:07:54.122Z,12
2022-08-30T04:09:10.362Z,12
2022-08-30T04:10:26.596Z,12
2022-08-30T04:11:42.854Z,12
2022-08-30T04:12:59.081Z,12
2022-08-30T04:14:14.338Z,12.1
2022-08-30T04:15:30.585Z,12
2022-08-30T04:16:46.828Z,12.1
2022-08-30T04:18:03.060Z,12
2022-08-30T04:19:19.307Z,12.1
2022-08-30T04:20:35.551Z,12.1
2022-08-30T04:21:51.787Z,12.2
2022-08-30T04:23:08.015Z,12.1
2022-08-30T04:24:24.260Z,12.2
2022-08-30T04:25:40.496Z,12.1
2022-08-30T04:26:56.743Z,12.1
2022-08-30T04:28:12.984Z,12.1
2022-08-30T04:29:29.217Z,12
2022-08-30T04:30:44.484Z,12
2022-08-30T04:32:00.717Z,12
2022-08-30T04:34:33.210Z,12
2022-08-30T04:35:49.440Z,12
2022-08-30T04:39:38.165Z,11.9
2022-08-30T04:40:53.420Z,11.9
2022-08-30T04:42:08.687Z,11.9
2022-08-30T04:43:24.921Z,11.9
2022-08-30T04:44:41.154Z,11.9
2022-08-30T04:45:57.410Z,11.9
2022-08-30T04:47:13.641Z,11.9
2022-08-30T04:48:29.885Z,11.9
2022-08-30T04:49:46.116Z,12
2022-08-30T04:51:02.357Z,11.9
2022-08-30T04:52:18.602Z,12
2022-08-30T04:53:34.833Z,11.9
2022-08-30T04:54:50.110Z,12
2022-08-30T04:56:05.350Z,12
2022-08-30T04:57:21.604Z,12
2022-08-30T04:58:37.845Z,12.1
2022-08-30T04:59:54.081Z,12.1
2022-08-30T05:02:26.562Z,12.2
2022-08-30T05:03:42.798Z,12.2
2022-08-30T05:04:59.048Z,12.2
2022-08-30T05:06:15.286Z,12.2
2022-08-30T05:07:31.525Z,12.3
2022-08-30T05:08:47.759Z,12.4
2022-08-30T05:10:04.002Z,12.4
2022-08-30T05:11:20.239Z,12.5
2022-08-30T05:13:51.725Z,12.5
2022-08-30T05:15:06.992Z,12.6
2022-08-30T05:17:39.467Z,12.7
2022-08-30T05:18:54.725Z,12.7
2022-08-30T05:20:10.982Z,12.8
2022-08-30T05:21:27.221Z,12.8
2022-08-30T05:22:43.456Z,12.9
2022-08-30T05:23:59.694Z,12.9
2022-08-30T05:25:15.924Z,12.9
2022-08-30T05:26:32.177Z,12.9
2022-08-30T05:27:48.404Z,13
2022-08-30T05:29:04.645Z,13
2022-08-30T05:30:19.907Z,13
2022-08-30T05:31:35.177Z,13
2022-08-30T05:32:51.405Z,13.1
2022-08-30T05:34:07.643Z,13.1
2022-08-30T05:35:23.883Z,13.1
2022-08-30T05:36:40.140Z,13.2
2022-08-30T05:37:56.372Z,13.2
2022-08-30T05:39:12.608Z,13.3
2022-08-30T05:40:28.851Z,13.2
2022-08-30T05:41:45.085Z,13.3
2022-08-30T05:43:01.323Z,13.4
2022-08-30T05:44:17.574Z,13.4
2022-08-30T05:45:33.807Z,13.5
2022-08-30T05:46:50.061Z,13.5
2022-08-30T05:48:05.306Z,13.6
2022-08-30T05:49:21.550Z,13.6
2022-08-30T05:50:37.796Z,13.7
2022-08-30T05:51:54.021Z,13.8
2022-08-30T05:53:10.275Z,13.8
2022-08-30T05:54:26.516Z,13.8
2022-08-30T05:55:42.740Z,13.9
2022-08-30T05:56:58.993Z,13.9
2022-08-30T05:58:15.227Z,14
2022-08-30T05:59:31.479Z,13.9
2022-08-30T06:00:46.726Z,14
2022-08-30T06:02:02.979Z,14.1
2022-08-30T06:03:19.217Z,14.1
2022-08-30T06:04:35.453Z,14.1
2022-08-30T06:05:51.689Z,14.1
2022-08-30T06:07:07.931Z,14.2
2022-08-30T06:08:24.165Z,14.2
2022-08-30T06:10:56.653Z,14.2
2022-08-30T06:12:12.883Z,14.2
2022-08-30T06:13:29.129Z,14.3
2022-08-30T06:14:45.381Z,14.3
2022-08-30T06:16:01.620Z,14.3
2022-08-30T06:17:16.877Z,14.3
2022-08-30T06:18:33.113Z,14.4
2022-08-30T06:19:49.358Z,14.4
2022-08-30T06:21:05.581Z,14.4
2022-08-30T06:22:21.828Z,14.5
2022-08-30T06:23:38.079Z,14.5
2022-08-30T06:24:54.302Z,14.5
2022-08-30T06:26:10.540Z,14.6
2022-08-30T06:27:26.791Z,14.6
2022-08-30T06:28:43.038Z,14.7
2022-08-30T06:29:59.265Z,14.7
2022-08-30T06:31:15.520Z,14.7
2022-08-30T06:32:31.745Z,14.8
2022-08-30T06:33:47.008Z,14.8
2022-08-30T06:35:03.241Z,14.9
2022-08-30T06:36:19.481Z,14.9
2022-08-30T06:37:35.728Z,15
2022-08-30T06:38:51.968Z,15
2022-08-30T06:42:40.699Z,15.2
2022-08-30T06:43:56.927Z,15.2
2022-08-30T06:45:13.163Z,15.3
2022-08-30T06:46:29.405Z,15.4
2022-08-30T06:47:45.660Z,15.5
2022-08-30T06:49:01.894Z,15.6
2022-08-30T06:50:17.138Z,15.6
2022-08-30T06:51:33.375Z,15.7
2022-08-30T06:52:49.630Z,15.8
2022-08-30T06:54:05.875Z,15.8
2022-08-30T06:55:22.112Z,15.9
2022-08-30T06:56:38.344Z,16
2022-08-30T06:59:10.836Z,16
2022-08-30T07:00:26.084Z,16
2022-08-30T07:01:41.338Z,16.1
2022-08-30T07:02:57.581Z,16.1
2022-08-30T07:04:13.828Z,16.2
2022-08-30T07:05:30.069Z,16.2
2022-08-30T07:06:46.314Z,16.3
2022-08-30T07:08:02.542Z,16.4
2022-08-30T07:09:18.789Z,16.5
2022-08-30T07:10:35.024Z,16.5
2022-08-30T07:11:51.257Z,16.6
2022-08-30T07:13:07.508Z,16.6
2022-08-30T07:14:23.738Z,16.7
2022-08-30T07:15:39.004Z,16.7
2022-08-30T07:16:54.257Z,16.7
2022-08-30T07:19:26.742Z,16.7
2022-08-30T07:20:42.990Z,16.7
2022-08-30T07:21:59.232Z,16.6
2022-08-30T07:23:15.453Z,16.5
2022-08-30T07:24:31.699Z,16.5
2022-08-30T07:25:47.947Z,16.5
2022-08-30T07:27:04.175Z,16.4
2022-08-30T07:29:36.659Z,16.4
2022-08-30T07:30:52.911Z,16.4
2022-08-30T07:32:08.159Z,16.5
2022-08-30T07:33:23.412Z,16.5
2022-08-30T07:34:39.659Z,16.5
2022-08-30T07:35:55.909Z,16.5
2022-08-30T07:37:12.149Z,16.5
2022-08-30T07:38:28.373Z,16.6
2022-08-30T07:39:44.621Z,16.6
2022-08-30T07:41:00.857Z,16.6
2022-08-30T07:42:17.094Z,16.5
2022-08-30T07:43:33.332Z,16.5
2022-08-30T07:44:49.584Z,16.6
2022-08-30T07:46:04.845Z,16.6
2022-08-30T07:47:20.104Z,16.7
2022-08-30T07:48:36.347Z,16.7
2022-08-30T07:49:52.578Z,16.8
2022-08-30T07:51:08.809Z,16.9
2022-08-30T07:52:25.063Z,17
2022-08-30T07:53:41.300Z,17.1
2022-08-30T07:54:57.541Z,17.2
2022-08-30T07:57:30.018Z,17.4
2022-08-30T07:58:46.255Z,17.5
2022-08-30T08:00:02.497Z,17.5
2022-08-30T08:01:18.739Z,17.5
2022-08-30T08:02:34.972Z,17.6
2022-08-30T08:05:06.483Z,17.5
2022-08-30T08:06:21.740Z,17.6
2022-08-30T08:07:37.982Z,17.6
2022-08-30T08:08:53.241Z,17.7
2022-08-30T08:10:09.474Z,17.6
2022-08-30T08:11:25.706Z,17.6
2022-08-30T08:12:41.954Z,17.7
2022-08-30T08:13:58.200Z,17.8
2022-08-30T08:15:14.424Z,17.8
2022-08-30T08:16:30.677Z,17.9
2022-08-30T08:17:46.912Z,17.9
2022-08-30T08:20:19.403Z,17.9
2022-08-30T08:21:35.623Z,18
2022-08-30T08:22:51.875Z,18.1
2022-08-30T08:24:08.115Z,18.1
2022-08-30T08:25:23.365Z,18.1
2022-08-30T08:26:39.600Z,18.2
2022-08-30T08:27:55.839Z,18.2
2022-08-30T08:29:12.093Z,18.2
2022-08-30T08:30:28.339Z,18.3
2022-08-30T08:31:44.567Z,18.4
2022-08-30T08:33:00.803Z,18.4
2022-08-30T08:34:16.068Z,18.4
2022-08-30T08:35:32.316Z,18.4
2022-08-30T08:36:47.560Z,18.4
2022-08-30T08:38:03.809Z,18.4
2022-08-30T08:39:20.038Z,18.5
2022-08-30T08:40:36.287Z,18.6
2022-08-30T08:41:52.532Z,18.7
2022-08-30T08:43:08.762Z,18.8
2022-08-30T08:44:25.014Z,18.8
2022-08-30T08:45:41.240Z,18.8
2022-08-30T08:46:57.480Z,18.8
2022-08-30T08:48:13.724Z,18.9
2022-08-30T08:49:29.968Z,18.9
2022-08-30T08:50:46.211Z,19
2022-08-30T08:52:02.444Z,19.1
2022-08-30T08:53:17.703Z,19.1
2022-08-30T08:54:33.946Z,19.1
2022-08-30T08:55:50.186Z,19.2
2022-08-30T08:57:06.427Z,19.2
2022-08-30T08:58:22.664Z,19.2
2022-08-30T08:59:38.904Z,19.3
2022-08-30T09:00:55.147Z,19.4
2022-08-30T09:02:11.384Z,19.4
2022-08-30T09:03:27.635Z,19.4
2022-08-30T09:04:43.869Z,19.5
2022-08-30T09:06:00.112Z,19.5
2022-08-30T09:07:16.344Z,19.6
2022-08-30T09:08:32.584Z,19.6
2022-08-30T09:09:47.838Z,19.7
2022-08-30T09:11:04.084Z,19.6
2022-08-30T09:13:36.569Z,19.8
2022-08-30T09:14:52.802Z,19.8
2022-08-30T09:16:09.048Z,19.8
2022-08-30T09:17:25.284Z,19.8
2022-08-30T09:18:41.514Z,19.9
2022-08-30T09:19:57.755Z,20
2022-08-30T09:21:13.999Z,20
2022-08-30T09:22:30.244Z,20.1
2022-08-30T09:23:46.479Z,20.1
2022-08-30T09:25:02.727Z,20.1
2022-08-30T09:26:17.970Z,20.1
2022-08-30T09:27:34.214Z,20.3
2022-08-30T09:28:50.454Z,20.2
2022-08-30T09:30:06.696Z,20.3
2022-08-30T09:31:22.937Z,20.3
2022-08-30T09:32:39.179Z,20.3
2022-08-30T09:33:55.422Z,20.3
2022-08-30T09:36:27.890Z,20.4
2022-08-30T09:37:44.132Z,20.4
2022-08-30T09:39:00.388Z,20.4
2022-08-30T09:40:16.611Z,20.4
2022-08-30T09:41:32.855Z,20.4
2022-08-30T09:42:48.113Z,20.5
2022-08-30T09:44:04.353Z,20.5
2022-08-30T09:45:20.605Z,20.5
2022-08-30T09:46:36.829Z,20.6
2022-08-30T09:47:53.067Z,20.5
2022-08-30T09:49:09.323Z,20.4
2022-08-30T09:51:41.794Z,20.4
2022-08-30T09:52:58.028Z,20.4
2022-08-30T09:54:14.271Z,20.5
2022-08-30T09:55:30.520Z,20.5
2022-08-30T09:56:46.755Z,20.5
2022-08-30T09:58:02.998Z,20.6
2022-08-30T09:59:18.257Z,20.6
2022-08-30T10:00:34.499Z,20.6
2022-08-30T10:01:50.736Z,20.6
2022-08-30T10:03:06.965Z,20.6
2022-08-30T10:04:23.219Z,20.7
2022-08-30T10:05:39.447Z,20.7
2022-08-30T10:06:55.686Z,20.8
2022-08-30T10:08:11.931Z,20.9
2022-08-30T10:09:28.183Z,20.9
2022-08-30T10:10:44.413Z,21
2022-08-30T10:12:00.655Z,21
2022-08-30T10:13:16.894Z,21
2022-08-30T10:14:33.140Z,21
2022-08-30T10:15:48.393Z,20.9
2022-08-30T10:17:04.630Z,21
2022-08-30T10:18:20.875Z,21
2022-08-30T10:19:37.126Z,21
2022-08-30T10:20:53.366Z,21.1
2022-08-30T10:22:09.599Z,21
2022-08-30T10:23:25.830Z,21.1
2022-08-30T10:24:42.084Z,21
2022-08-30T10:25:58.323Z,21
2022-08-30T10:27:14.559Z,21.1
2022-08-30T10:28:30.805Z,21.1
2022-08-30T10:29:47.031Z,21.2
2022-08-30T10:31:03.272Z,21.3
2022-08-30T10:32:19.512Z,21.4
2022-08-30T10:33:34.782Z,21.4
2022-08-30T10:34:51.018Z,21.5
2022-08-30T10:36:07.254Z,21.5
2022-08-30T10:37:23.489Z,21.6
2022-08-30T10:38:39.726Z,21.5
2022-08-30T10:39:55.974Z,21.5
2022-08-30T10:41:12.210Z,21.6
2022-08-30T10:42:28.460Z,21.5
2022-08-30T10:43:44.690Z,21.5
2022-08-30T10:45:00.931Z,21.6
2022-08-30T10:46:17.181Z,21.6
2022-08-30T10:47:33.413Z,21.6
2022-08-30T10:48:49.652Z,21.7
2022-08-30T10:50:05.897Z,21.7
2022-08-30T10:51:21.142Z,21.8
2022-08-30T10:52:37.399Z,21.8
2022-08-30T10:53:53.623Z,21.9
2022-08-30T10:55:09.877Z,21.9
2022-08-30T10:56:26.120Z,21.9
2022-08-30T10:57:42.357Z,21.9
2022-08-30T11:00:14.835Z,21.9
2022-08-30T11:01:31.066Z,21.9
2022-08-30T11:02:47.309Z,22
2022-08-30T11:04:03.549Z,22
2022-08-30T11:05:19.800Z,22
2022-08-30T11:06:36.040Z,22.1
2022-08-30T11:07:51.294Z,22.1
2022-08-30T11:09:07.539Z,22.1
2022-08-30T11:10:23.762Z,22.1
2022-08-30T11:11:40.011Z,22.2
2022-08-30T11:12:56.245Z,22.2
2022-08-30T11:14:12.490Z,22.3
2022-08-30T11:15:28.726Z,22.4
2022-08-30T11:16:44.974Z,22.4
2022-08-30T11:18:01.213Z,22.4
2022-08-30T11:19:17.461Z,22.4
2022-08-30T11:20:33.683Z,22.4
2022-08-30T11:21:49.938Z,22.4
2022-08-30T11:23:06.161Z,22.4
2022-08-30T11:24:21.430Z,22.5
2022-08-30T11:25:37.659Z,22.5
2022-08-30T11:26:53.911Z,22.6
2022-08-30T11:28:10.156Z,22.7
2022-08-30T11:29:26.389Z,22.8
2022-08-30T11:30:42.634Z,22.7
2022-08-30T11:31:58.863Z,22.7
2022-08-30T11:33:15.101Z,22.7
2022-08-30T11:35:47.581Z,22.6
2022-08-30T11:37:03.838Z,22.6
2022-08-30T11:38:20.059Z,22.5
2022-08-30T11:39:36.320Z,22.5
2022-08-30T11:40:51.570Z,22.5
2022-08-30T11:42:07.813Z,22.5
2022-08-30T11:43:24.055Z,22.5
2022-08-30T11:45:56.530Z,22.5
2022-08-30T11:47:12.763Z,22.4
2022-08-30T11:48:29.001Z,22.3
2022-08-30T11:49:45.253Z,22.3
2022-08-30T11:51:01.476Z,22.3
2022-08-30T11:52:17.722Z,22.1
2022-08-30T11:53:33.964Z,22
2022-08-30T11:54:50.198Z,21.9
2022-08-30T11:56:06.456Z,21.9
2022-08-30T11:57:21.693Z,21.9
2022-08-30T11:58:37.947Z,21.8
2022-08-30T12:01:10.433Z,21.7
2022-08-30T12:02:25.692Z,21.7
2022-08-30T12:03:40.944Z,21.7
2022-08-30T12:04:57.184Z,21.7
2022-08-30T12:06:13.426Z,21.7
2022-08-30T12:07:29.663Z,21.7
2022-08-30T12:08:45.902Z,21.7
2022-08-30T12:10:02.143Z,21.7
2022-08-30T12:11:18.383Z,21.7
2022-08-30T12:12:34.629Z,21.7
2022-08-30T12:13:50.861Z,21.8
2022-08-30T12:15:07.095Z,21.9
2022-08-30T12:16:23.347Z,22
2022-08-30T12:17:38.611Z,22.1
2022-08-30T12:18:53.852Z,22.2
2022-08-30T12:20:10.105Z,22.3
2022-08-30T12:21:26.344Z,22.5
2022-08-30T12:22:42.573Z,22.6
2022-08-30T12:23:58.811Z,22.7
2022-08-30T12:25:15.070Z,22.8
2022-08-30T12:26:31.297Z,22.8
2022-08-30T12:27:47.541Z,22.9
2022-08-30T12:29:03.785Z,22.9
2022-08-30T12:30:20.019Z,22.9
2022-08-30T12:31:36.263Z,22.9
2022-08-30T12:32:52.496Z,22.9
2022-08-30T12:34:08.737Z,22.9
2022-08-30T12:35:24.991Z,22.9
2022-08-30T12:36:40.247Z,22.9
2022-08-30T12:39:12.709Z,23
2022-08-30T12:40:28.970Z,23
2022-08-30T12:41:45.189Z,23
2022-08-30T12:43:01.448Z,23
2022-08-30T12:44:17.675Z,22.9
2022-08-30T12:46:50.157Z,22.7
2022-08-30T12:49:22.638Z,22.6
2022-08-30T12:50:38.886Z,22.6
2022-08-30T12:51:54.142Z,22.4
2022-08-30T12:53:10.381Z,22.4
2022-08-30T12:54:25.641Z,22.4
2022-08-30T12:55:41.870Z,22.4
2022-08-30T12:56:58.128Z,22.3
2022-08-30T12:58:14.353Z,22.3
2022-08-30T12:59:30.595Z,22.3
2022-08-30T13:00:46.831Z,22.2
2022-08-30T13:02:03.080Z,22.1
2022-08-30T13:03:19.329Z,22
2022-08-30T13:04:35.569Z,21.9
2022-08-30T13:05:51.801Z,21.9
2022-08-30T13:07:07.070Z,21.8
2022-08-30T13:08:22.322Z,21.8
2022-08-30T13:09:38.554Z,21.8
2022-08-30T13:10:54.798Z,21.7
2022-08-30T13:12:11.032Z,21.7
2022-08-30T13:13:27.271Z,21.7
2022-08-30T13:14:43.511Z,21.7
2022-08-30T13:15:59.767Z,21.7
2022-08-30T13:17:15.991Z,21.8
2022-08-30T13:18:32.234Z,21.8
2022-08-30T13:19:48.479Z,21.8
2022-08-30T13:22:20.961Z,21.7
2022-08-30T13:23:37.206Z,21.7
2022-08-30T13:24:52.451Z,21.7
2022-08-30T13:26:08.698Z,21.6
2022-08-30T13:27:24.945Z,21.6
2022-08-30T13:28:41.185Z,21.6
2022-08-30T13:29:57.419Z,21.7
2022-08-30T13:31:13.650Z,21.7
2022-08-30T13:32:29.902Z,21.7
2022-08-30T13:35:02.382Z,21.8
2022-08-30T13:36:18.627Z,21.8
2022-08-30T13:37:34.865Z,21.9
2022-08-30T13:38:51.098Z,22
2022-08-30T13:40:07.340Z,22
2022-08-30T13:41:23.568Z,22
2022-08-30T13:42:39.823Z,22
2022-08-30T13:43:55.077Z,22
2022-08-30T13:45:11.324Z,22
2022-08-30T13:46:27.545Z,22
2022-08-30T13:47:43.797Z,22
2022-08-30T13:49:00.027Z,22
2022-08-30T13:50:16.273Z,21.9
2022-08-30T13:51:32.515Z,22
2022-08-30T13:52:48.751Z,22
2022-08-30T13:55:21.228Z,22
2022-08-30T13:56:37.483Z,21.9
2022-08-30T13:57:53.714Z,21.9
2022-08-30T13:59:09.947Z,21.9
2022-08-30T14:00:25.221Z,22
2022-08-30T14:02:57.694Z,22
2022-08-30T14:04:13.000Z,22
2022-08-30T14:05:30.176Z,22
2022-08-30T14:06:46.403Z,22.1
2022-08-30T14:08:02.643Z,22
2022-08-30T14:09:18.887Z,22
2022-08-30T14:10:35.141Z,21.9
2022-08-30T14:11:51.374Z,21.9
2022-08-30T14:13:07.609Z,21.9
2022-08-30T14:14:23.845Z,21.8
2022-08-30T14:15:40.097Z,21.8
2022-08-30T14:18:11.595Z,21.8
2022-08-30T14:19:26.844Z,21.8
2022-08-30T14:20:42.108Z,21.8
2022-08-30T14:21:58.349Z,21.7
2022-08-30T14:23:14.596Z,21.7
2022-08-30T14:24:30.837Z,21.8
2022-08-30T14:25:47.066Z,21.8
2022-08-30T14:27:03.301Z,21.8
2022-08-30T14:28:19.558Z,21.8
2022-08-30T14:29:35.795Z,21.8
2022-08-30T14:30:51.041Z,21.8
2022-08-30T14:32:07.289Z,21.9
2022-08-30T14:33:22.564Z,21.9
2022-08-30T14:34:37.819Z,21.9
2022-08-30T14:35:54.050Z,22
2022-08-30T14:37:10.297Z,22
2022-08-30T14:38:26.521Z,22
2022-08-30T14:39:42.780Z,22.1
2022-08-30T14:40:59.017Z,22.1
2022-08-30T14:42:15.261Z,22.1
2022-08-30T14:43:31.496Z,22.1
2022-08-30T14:44:47.726Z,22.1
2022-08-30T14:48:36.457Z,22.2
2022-08-30T14:49:51.709Z,22.3
2022-08-30T14:51:07.946Z,22.3
2022-08-30T14:52:23.198Z,22.3
2022-08-30T14:53:39.000Z,22.3
2022-08-30T14:54:55.695Z,22.3
2022-08-30T14:56:11.937Z,22.3
2022-08-30T14:57:28.161Z,22.2
2022-08-30T14:58:44.418Z,22.2
2022-08-30T15:00:00.639Z,22.3
2022-08-30T15:01:16.896Z,22.2
2022-08-30T15:02:33.124Z,22.2
2022-08-30T15:03:48.383Z,22.2
2022-08-30T15:05:03.648Z,22.2
2022-08-30T15:06:19.894Z,22.1
2022-08-30T15:08:52.368Z,22.1
2022-08-30T15:11:24.840Z,22.1
2022-08-30T15:12:41.095Z,22.1
2022-08-30T15:13:57.326Z,22.2
2022-08-30T15:15:13.568Z,22.2
2022-08-30T15:16:29.813Z,22.2
2022-08-30T15:17:46.042Z,22.2
2022-08-30T15:19:02.292Z,22.1
2022-08-30T15:20:18.530Z,22.1
2022-08-30T15:21:33.796Z,22.2
2022-08-30T15:24:05.287Z,22.2
2022-08-30T15:25:21.526Z,22.1
2022-08-30T15:26:37.774Z,22.1
2022-08-30T15:27:54.016Z,22.2
2022-08-30T15:29:10.251Z,22.2
2022-08-30T15:30:26.483Z,22.2
2022-08-30T15:31:42.727Z,22.3
2022-08-30T15:32:58.962Z,22.3
2022-08-30T15:34:15.213Z,22.4
2022-08-30T15:35:31.448Z,22.4
2022-08-30T15:36:46.706Z,22.5
2022-08-30T15:38:01.967Z,22.5
2022-08-30T15:39:18.214Z,22.5
2022-08-30T15:41:50.693Z,22.5
2022-08-30T15:43:06.929Z,22.6
2022-08-30T15:44:23.161Z,22.5
2022-08-30T15:45:39.401Z,22.5
2022-08-30T15:46:55.648Z,22.5
2022-08-30T15:49:28.131Z,22.5
2022-08-30T15:50:44.369Z,22.5
2022-08-30T15:52:00.611Z,22.5
2022-08-30T15:53:15.864Z,22.4
2022-08-30T15:54:31.118Z,22.4
2022-08-30T15:57:03.606Z,22.5
2022-08-30T15:58:19.840Z,22.4
2022-08-30T15:59:36.096Z,22.4
2022-08-30T16:02:08.564Z,22.4
2022-08-30T16:04:41.054Z,22.4
2022-08-30T16:05:57.294Z,22.3
2022-08-30T16:07:13.520Z,22.3
2022-08-30T16:08:29.762Z,22.3
2022-08-30T16:09:46.002Z,22.2
2022-08-30T16:12:18.501Z,22.2
2022-08-30T16:13:33.763Z,22.2
2022-08-30T16:14:49.012Z,22.2
2022-08-30T16:16:05.246Z,22.2
2022-08-30T16:17:21.496Z,22.1
2022-08-30T16:18:37.734Z,22.1
2022-08-30T16:19:53.974Z,22.2
2022-08-30T16:21:10.212Z,22.2
2022-08-30T16:22:26.454Z,22.2
2022-08-30T16:23:42.680Z,22.2
2022-08-30T16:24:58.927Z,22.2
2022-08-30T16:27:31.416Z,22.2
2022-08-30T16:28:47.657Z,22.1
2022-08-30T16:30:03.888Z,22.1
2022-08-30T16:31:19.136Z,22.1
2022-08-30T16:32:35.386Z,22.1
2022-08-30T16:33:51.617Z,22
2022-08-30T16:35:07.859Z,22
2022-08-30T16:36:24.109Z,22
2022-08-30T16:37:40.340Z,22
2022-08-30T16:38:56.584Z,22
2022-08-30T16:40:12.818Z,21.9
2022-08-30T16:41:28.093Z,21.9
2022-08-30T16:42:43.338Z,21.9
2022-08-30T16:43:59.586Z,21.9
2022-08-30T16:45:15.822Z,21.9
2022-08-30T16:46:32.058Z,21.9
2022-08-30T16:47:48.306Z,21.9
2022-08-30T16:49:04.548Z,21.9
2022-08-30T16:50:20.793Z,21.9
2022-08-30T16:51:37.018Z,21.8
2022-08-30T16:52:53.276Z,21.8
2022-08-30T16:54:09.498Z,21.8
2022-08-30T16:55:24.771Z,21.8
2022-08-30T16:56:40.027Z,21.7
2022-08-30T16:57:56.261Z,21.7
2022-08-30T16:59:12.509Z,21.6
2022-08-30T17:00:28.751Z,21.7
2022-08-30T17:01:44.980Z,21.6
2022-08-30T17:03:01.217Z,21.6
2022-08-30T17:04:17.470Z,21.6
2022-08-30T17:05:33.697Z,21.5
2022-08-30T17:06:49.956Z,21.5
2022-08-30T17:08:06.177Z,21.5
2022-08-30T17:09:22.435Z,21.4
2022-08-30T17:10:38.674Z,21.5
2022-08-30T17:13:11.118Z,21.7
2022-08-30T17:14:26.385Z,21.7
2022-08-30T17:15:42.617Z,21.8
2022-08-30T17:16:58.852Z,21.9
2022-08-30T17:18:15.107Z,22
2022-08-30T17:19:31.348Z,22.1
2022-08-30T17:20:47.575Z,22.1
2022-08-30T17:22:03.828Z,22.2
2022-08-30T17:23:20.059Z,22.2
2022-08-30T17:24:36.294Z,22.2
2022-08-30T17:25:52.534Z,22.3
2022-08-30T17:28:25.033Z,22.3
2022-08-30T17:29:41.256Z,22.3
2022-08-30T17:30:56.529Z,22.3
2022-08-30T17:32:12.770Z,22.3
2022-08-30T17:33:28.997Z,22.2
2022-08-30T17:34:45.000Z,22.1
2022-08-30T17:36:01.478Z,22
2022-08-30T17:37:17.718Z,21.9
2022-08-30T17:38:33.955Z,21.8
2022-08-30T17:39:50.199Z,21.7
2022-08-30T17:41:06.444Z,21.5
2022-08-30T17:42:22.674Z,21.4
2022-08-30T17:43:38.921Z,21.2
2022-08-30T17:44:55.155Z,21.1
2022-08-30T17:46:11.405Z,21
2022-08-30T17:47:26.654Z,20.8
2022-08-30T17:48:42.891Z,20.8
2022-08-30T17:49:59.134Z,20.7
2022-08-30T17:51:15.374Z,20.6
2022-08-30T17:52:31.622Z,20.6
2022-08-30T17:53:47.852Z,20.5
2022-08-30T17:55:04.099Z,20.4
2022-08-30T17:56:20.327Z,20.4
2022-08-30T17:57:36.570Z,20.3
2022-08-30T17:58:52.818Z,20.3
2022-08-30T18:00:09.056Z,20.2
2022-08-30T18:01:25.294Z,20.2
2022-08-30T18:02:41.544Z,20.1
2022-08-30T18:03:56.801Z,20.1
2022-08-30T18:06:29.283Z,20
2022-08-30T18:07:45.524Z,20
2022-08-30T18:09:01.761Z,20
2022-08-30T18:10:17.993Z,19.9
2022-08-30T18:11:34.232Z,19.9